createdAt,value
2018-07-15T00:01:48.853Z,2.00
2018-07-15T00:04:17.163Z,2.20
2018-07-15T00:06:45.446Z,2.50
2018-07-15T00:09:13.751Z,2.10
2018-07-15T00:11:42.087Z,2.30
2018-07-15T00:14:10.336Z,2.50
2018-07-15T00:16:38.625Z,2.10
2018-07-15T00:19:06.889Z,2.47
2018-07-15T00:21:35.201Z,2.20
2018-07-15T00:24:03.507Z,2.10
2018-07-15T00:26:31.775Z,2.10
2018-07-15T00:29:00.148Z,2.87
2018-07-15T00:31:28.425Z,3.30
2018-07-15T00:33:56.755Z,3.03
2018-07-15T00:36:25.043Z,2.37
2018-07-15T00:38:53.352Z,2.40
2018-07-15T00:41:21.774Z,2.00
2018-07-15T00:43:50.347Z,2.37
2018-07-15T00:46:18.759Z,2.20
2018-07-15T00:48:47.087Z,2.40
2018-07-15T00:51:15.390Z,3.03
2018-07-15T00:53:43.721Z,3.37
2018-07-15T00:56:12.037Z,4.13
2018-07-15T00:58:40.221Z,4.13
2018-07-15T01:01:08.519Z,2.93
2018-07-15T01:03:36.885Z,3.30
2018-07-15T01:06:05.213Z,3.00
2018-07-15T01:08:33.801Z,3.60
2018-07-15T01:11:02.425Z,3.30
2018-07-15T01:13:30.738Z,3.30
2018-07-15T01:15:59.002Z,3.30
2018-07-15T01:18:27.477Z,3.43
2018-07-15T01:20:55.769Z,3.10
2018-07-15T01:23:24.161Z,2.83
2018-07-15T01:25:52.545Z,3.00
2018-07-15T01:28:20.897Z,3.10
2018-07-15T01:30:49.191Z,3.13
2018-07-15T01:33:17.557Z,3.23
2018-07-15T01:35:45.850Z,3.40
2018-07-15T01:38:14.141Z,3.53
2018-07-15T01:40:42.449Z,3.00
2018-07-15T01:43:10.721Z,3.37
2018-07-15T01:45:38.995Z,3.10
2018-07-15T01:48:07.023Z,3.10
2018-07-15T01:50:35.294Z,3.20
2018-07-15T01:53:03.539Z,3.37
2018-07-15T01:55:31.999Z,4.00
2018-07-15T01:58:00.270Z,3.43
2018-07-15T02:00:28.547Z,3.60
2018-07-15T02:02:56.865Z,4.33
2018-07-15T02:05:25.199Z,4.27
2018-07-15T02:07:53.510Z,4.50
2018-07-15T02:10:21.846Z,4.27
2018-07-15T02:12:50.261Z,5.20
2018-07-15T02:15:18.583Z,4.60
2018-07-15T02:17:46.883Z,4.57
2018-07-15T02:20:15.125Z,4.70
2018-07-15T02:22:43.405Z,5.57
2018-07-15T02:25:11.708Z,5.80
2018-07-15T02:27:39.976Z,6.17
2018-07-15T02:30:08.391Z,6.50
2018-07-15T02:32:36.715Z,6.37
2018-07-15T02:35:05.333Z,6.37
2018-07-15T02:37:33.637Z,6.03
2018-07-15T02:40:01.906Z,5.27
2018-07-15T02:42:30.191Z,5.03
2018-07-15T02:44:58.469Z,5.60
2018-07-15T02:47:26.913Z,4.73
2018-07-15T02:49:55.253Z,5.10
2018-07-15T02:52:23.531Z,5.40
2018-07-15T02:54:52.000Z,5.20
2018-07-15T02:57:20.355Z,5.10
2018-07-15T02:59:48.851Z,4.63
2018-07-15T03:02:17.191Z,4.50
2018-07-15T03:04:45.467Z,4.80
2018-07-15T03:07:13.939Z,4.40
2018-07-15T03:09:42.013Z,5.10
2018-07-15T03:12:10.189Z,4.97
2018-07-15T03:14:38.513Z,4.70
2018-07-15T03:17:07.187Z,5.73
2018-07-15T03:19:35.439Z,4.53
2018-07-15T03:22:03.743Z,4.87
2018-07-15T03:24:32.121Z,5.27
2018-07-15T03:27:00.368Z,5.30
2018-07-15T03:29:28.671Z,4.83
2018-07-15T03:31:57.225Z,4.63
2018-07-15T03:34:25.537Z,4.43
2018-07-15T03:36:53.812Z,4.10
2018-07-15T03:39:22.106Z,3.97
2018-07-15T03:41:50.373Z,4.17
2018-07-15T03:44:18.657Z,4.07
2018-07-15T03:46:47.101Z,3.93
2018-07-15T03:49:15.596Z,4.20
2018-07-15T03:51:43.943Z,4.30
2018-07-15T03:54:12.215Z,4.50
2018-07-15T03:56:40.471Z,4.90
2018-07-15T03:59:08.749Z,4.47
2018-07-15T04:01:37.043Z,4.50
2018-07-15T04:04:05.327Z,4.73
2018-07-15T04:06:33.616Z,5.77
2018-07-15T04:09:01.936Z,6.20
2018-07-15T04:11:30.185Z,5.90
2018-07-15T04:13:58.464Z,5.33
2018-07-15T04:16:26.772Z,4.57
2018-07-15T04:18:55.199Z,4.33
2018-07-15T04:21:23.695Z,4.33
2018-07-15T04:23:52.123Z,4.20
2018-07-15T04:26:20.405Z,4.73
2018-07-15T04:28:48.777Z,4.53
2018-07-15T04:31:17.097Z,4.07
2018-07-15T04:33:45.553Z,4.50
2018-07-15T04:36:13.835Z,4.83
2018-07-15T04:38:42.288Z,5.10
2018-07-15T04:41:10.689Z,5.07
2018-07-15T04:43:38.997Z,5.13
2018-07-15T04:46:07.314Z,4.60
2018-07-15T04:48:35.601Z,5.07
2018-07-15T04:51:03.995Z,5.20
2018-07-15T04:53:32.298Z,5.47
2018-07-15T04:56:00.572Z,5.50
2018-07-15T04:58:28.838Z,5.33
2018-07-15T05:00:57.553Z,4.90
2018-07-15T05:03:26.017Z,5.30
2018-07-15T05:05:54.387Z,5.10
2018-07-15T05:08:22.668Z,5.50
2018-07-15T05:10:50.941Z,5.67
2018-07-15T05:13:19.269Z,5.33
2018-07-15T05:15:47.322Z,5.37
2018-07-15T05:18:15.673Z,5.57
2018-07-15T05:20:43.933Z,5.27
2018-07-15T05:23:12.255Z,6.17
2018-07-15T05:25:40.567Z,6.23
2018-07-15T05:28:08.867Z,5.70
2018-07-15T05:30:37.151Z,6.47
2018-07-15T05:33:05.427Z,6.40
2018-07-15T05:35:33.770Z,5.90
2018-07-15T05:38:02.047Z,6.20
2018-07-15T05:40:30.207Z,5.50
2018-07-15T05:42:58.512Z,5.30
2018-07-15T05:45:26.962Z,5.00
2018-07-15T05:47:55.249Z,5.20
2018-07-15T05:50:23.533Z,5.00
2018-07-15T05:52:52.039Z,4.07
2018-07-15T05:55:20.356Z,3.70
2018-07-15T05:57:48.602Z,3.70
2018-07-15T06:00:16.913Z,3.87
2018-07-15T06:02:45.201Z,3.77
2018-07-15T06:05:13.555Z,3.87
2018-07-15T06:07:41.888Z,3.57
2018-07-15T06:10:10.223Z,3.50
2018-07-15T06:12:38.574Z,3.30
2018-07-15T06:15:06.845Z,3.40
2018-07-15T06:17:35.283Z,3.53
2018-07-15T06:20:03.309Z,3.20
2018-07-15T06:22:31.599Z,4.07
2018-07-15T06:24:59.902Z,3.50
2018-07-15T06:27:28.424Z,4.87
2018-07-15T06:29:56.696Z,4.27
2018-07-15T06:32:24.959Z,3.60
2018-07-15T06:34:53.339Z,3.27
2018-07-15T06:37:21.630Z,3.73
2018-07-15T06:39:50.129Z,3.50
2018-07-15T06:42:18.425Z,4.17
2018-07-15T06:44:46.701Z,3.27
2018-07-15T06:47:14.934Z,3.10
2018-07-15T06:49:43.301Z,2.90
2018-07-15T06:52:11.580Z,2.57
2018-07-15T06:54:39.847Z,2.73
2018-07-15T06:57:08.093Z,2.90
2018-07-15T06:59:36.417Z,2.83
2018-07-15T07:02:04.790Z,3.00
2018-07-15T07:04:33.265Z,2.60
2018-07-15T07:07:01.551Z,2.50
2018-07-15T07:09:29.855Z,2.27
2018-07-15T07:11:58.564Z,2.87
2018-07-15T07:14:26.855Z,3.40
2018-07-15T07:16:55.197Z,3.30
2018-07-15T07:19:23.526Z,2.63
2018-07-15T07:21:51.830Z,2.50
2018-07-15T07:24:20.132Z,2.40
2018-07-15T07:26:48.852Z,2.00
2018-07-15T07:29:16.883Z,2.07
2018-07-15T07:31:45.189Z,1.80
2018-07-15T07:34:13.585Z,2.00
2018-07-15T07:36:42.021Z,2.50
2018-07-15T07:39:10.479Z,2.50
2018-07-15T07:41:39.334Z,3.00
2018-07-15T07:44:07.559Z,3.30
2018-07-15T07:46:35.874Z,4.07
2018-07-15T07:49:04.175Z,4.27
2018-07-15T07:51:32.453Z,2.70
2018-07-15T07:54:00.952Z,2.70
2018-07-15T07:56:29.486Z,2.80
2018-07-15T07:58:57.930Z,3.60
2018-07-15T08:01:26.373Z,3.20
2018-07-15T08:03:55.179Z,3.47
2018-07-15T08:06:23.659Z,2.93
2018-07-15T08:08:52.329Z,3.90
2018-07-15T08:11:20.626Z,4.63
2018-07-15T08:13:48.945Z,4.50
2018-07-15T08:16:17.231Z,4.63
2018-07-15T08:18:45.509Z,4.50
2018-07-15T08:21:13.802Z,4.83
2018-07-15T08:23:42.394Z,4.50
2018-07-15T08:26:10.654Z,3.90
2018-07-15T08:28:38.984Z,4.17
2018-07-15T08:31:14.530Z,4.90
2018-07-15T08:33:42.988Z,3.93
2018-07-15T08:36:11.700Z,4.50
2018-07-15T08:38:40.185Z,3.97
2018-07-15T08:41:08.516Z,4.70
2018-07-15T08:43:37.038Z,5.00
2018-07-15T08:46:05.938Z,7.50
2018-07-15T08:48:34.416Z,8.87
2018-07-15T08:51:02.972Z,4.60
2018-07-15T08:53:31.307Z,4.40
2018-07-15T08:55:59.631Z,4.90
2018-07-15T08:58:28.099Z,4.63
2018-07-15T09:00:56.355Z,4.20
2018-07-15T09:03:24.688Z,4.07
2018-07-15T09:05:52.902Z,5.10
2018-07-15T09:08:21.241Z,4.73
2018-07-15T09:10:49.520Z,5.83
2018-07-15T09:13:17.821Z,4.70
2018-07-15T09:15:46.205Z,4.00
2018-07-15T09:18:14.479Z,3.97
2018-07-15T09:20:42.819Z,3.87
2018-07-15T09:23:11.111Z,3.43
2018-07-15T09:25:39.387Z,4.10
2018-07-15T09:28:07.430Z,4.00
2018-07-15T09:30:35.820Z,3.83
2018-07-15T09:33:04.106Z,4.17
2018-07-15T09:35:32.433Z,4.20
2018-07-15T09:38:00.714Z,4.03
2018-07-15T09:40:28.990Z,4.80
2018-07-15T09:42:57.305Z,4.43
2018-07-15T09:45:25.596Z,3.67
2018-07-15T09:47:53.904Z,3.17
2018-07-15T09:50:22.292Z,3.53
2018-07-15T09:52:50.644Z,3.80
2018-07-15T09:55:19.754Z,3.50
2018-07-15T09:57:48.160Z,3.57
2018-07-15T10:00:21.754Z,3.80
2018-07-15T10:02:50.130Z,3.37
2018-07-15T10:05:18.449Z,3.50
2018-07-15T10:07:46.715Z,3.43
2018-07-15T10:10:14.994Z,3.90
2018-07-15T10:12:43.429Z,4.50
2018-07-15T10:15:11.755Z,4.13
2018-07-15T10:17:40.151Z,4.50
2018-07-15T10:20:08.924Z,3.67
2018-07-15T10:22:37.439Z,4.57
2018-07-15T10:25:05.783Z,3.77
2018-07-15T10:27:33.957Z,4.03
2018-07-15T10:30:02.292Z,3.43
2018-07-15T10:32:30.579Z,4.00
2018-07-15T10:34:59.044Z,4.40
2018-07-15T10:37:27.337Z,4.30
2018-07-15T10:39:55.684Z,3.87
2018-07-15T10:42:23.952Z,3.73
2018-07-15T10:44:52.250Z,3.90
2018-07-15T10:47:20.536Z,4.03
2018-07-15T10:49:48.990Z,3.23
2018-07-15T10:52:17.396Z,3.07
2018-07-15T10:54:45.648Z,2.87
2018-07-15T10:57:13.897Z,3.57
2018-07-15T10:59:42.170Z,3.90
2018-07-15T11:02:10.491Z,3.50
2018-07-15T11:04:38.813Z,3.63
2018-07-15T11:07:07.283Z,3.03
2018-07-15T11:09:35.576Z,3.50
2018-07-15T11:12:04.402Z,3.17
2018-07-15T11:14:33.330Z,3.00
2018-07-15T11:17:01.656Z,3.70
2018-07-15T11:19:29.985Z,4.03
2018-07-15T11:21:58.474Z,2.80
2018-07-15T11:24:26.768Z,2.80
2018-07-15T11:26:55.043Z,3.60
2018-07-15T11:29:23.305Z,3.07
2018-07-15T11:31:51.903Z,3.00
2018-07-15T11:34:20.313Z,2.73
2018-07-15T11:36:48.631Z,2.60
2018-07-15T11:39:16.946Z,2.90
2018-07-15T11:41:45.258Z,3.20
2018-07-15T11:44:13.532Z,2.70
2018-07-15T11:46:41.777Z,2.73
2018-07-15T11:49:10.133Z,3.20
2018-07-15T11:51:38.436Z,3.17
2018-07-15T11:54:06.756Z,3.30
2018-07-15T11:56:35.142Z,3.27
2018-07-15T11:59:03.431Z,3.13
2018-07-15T12:01:31.805Z,2.90
2018-07-15T12:04:00.106Z,2.60
2018-07-15T12:06:28.159Z,3.10
2018-07-15T12:08:56.503Z,3.43
2018-07-15T12:11:24.828Z,2.93
2018-07-15T12:13:53.258Z,2.80
2018-07-15T12:16:21.662Z,2.87
2018-07-15T12:18:49.960Z,3.70
2018-07-15T12:21:18.006Z,3.07
2018-07-15T12:23:46.483Z,3.30
2018-07-15T12:26:17.096Z,2.77
2018-07-15T12:28:45.444Z,3.03
2018-07-15T12:31:14.259Z,2.77
2018-07-15T12:33:42.588Z,2.70
2018-07-15T12:36:11.022Z,3.23
2018-07-15T12:38:39.277Z,2.80
2018-07-15T12:41:07.694Z,2.93
2018-07-15T12:43:35.970Z,2.70
2018-07-15T12:46:04.328Z,2.50
2018-07-15T12:48:32.691Z,2.50
2018-07-15T12:51:00.954Z,3.33
2018-07-15T12:53:29.241Z,2.37
2018-07-15T12:55:57.564Z,2.97
2018-07-15T12:58:25.835Z,2.97
2018-07-15T13:00:54.165Z,3.03
2018-07-15T13:03:22.443Z,2.70
2018-07-15T13:05:50.731Z,2.90
2018-07-15T13:08:18.998Z,2.57
2018-07-15T13:10:47.251Z,2.37
2018-07-15T13:13:15.514Z,2.50
2018-07-15T13:15:43.809Z,2.73
2018-07-15T13:18:12.388Z,2.40
2018-07-15T13:20:40.683Z,2.33
2018-07-15T13:23:09.044Z,2.60
2018-07-15T13:25:37.594Z,2.37
2018-07-15T13:28:05.914Z,2.30
2018-07-15T13:30:34.212Z,2.70
2018-07-15T13:33:02.644Z,2.37
2018-07-15T13:35:31.062Z,2.57
2018-07-15T13:37:59.347Z,2.30
2018-07-15T13:40:27.797Z,2.43
2018-07-15T13:42:56.164Z,2.57
2018-07-15T13:45:24.674Z,2.57
2018-07-15T13:47:52.981Z,3.80
2018-07-15T13:50:21.232Z,2.50
2018-07-15T13:52:49.514Z,2.20
2018-07-15T13:55:17.836Z,1.90
2018-07-15T13:57:46.137Z,2.13
2018-07-15T14:00:14.811Z,2.37
2018-07-15T14:02:43.082Z,2.13
2018-07-15T14:05:11.096Z,2.23
2018-07-15T14:07:39.368Z,2.07
2018-07-15T14:10:07.726Z,2.30
2018-07-15T14:12:36.119Z,2.50
2018-07-15T14:15:04.474Z,2.30
2018-07-15T14:17:32.751Z,3.00
2018-07-15T14:20:07.821Z,2.20
2018-07-15T14:22:36.137Z,2.10
2018-07-15T14:25:06.770Z,2.20
2018-07-15T14:27:35.082Z,1.87
2018-07-15T14:30:03.486Z,1.70
2018-07-15T14:32:31.814Z,1.97
2018-07-15T14:35:07.390Z,2.10
2018-07-15T14:37:35.997Z,2.00
2018-07-15T14:40:04.456Z,1.90
2018-07-15T14:42:32.710Z,1.80
2018-07-15T14:45:00.984Z,2.30
2018-07-15T14:47:30.796Z,2.30
2018-07-15T14:49:59.213Z,2.00
2018-07-15T14:52:27.483Z,2.20
2018-07-15T14:54:55.772Z,1.97
2018-07-15T14:57:24.126Z,2.00
2018-07-15T14:59:52.414Z,2.00
2018-07-15T15:02:20.818Z,1.73
2018-07-15T15:04:49.112Z,1.80
2018-07-15T15:07:17.401Z,2.03
2018-07-15T15:09:45.783Z,1.80
2018-07-15T15:12:14.165Z,1.70
2018-07-15T15:14:42.457Z,2.00
2018-07-15T15:17:10.788Z,2.00
2018-07-15T15:19:39.475Z,1.67
2018-07-15T15:22:07.755Z,2.07
2018-07-15T15:24:36.014Z,1.97
2018-07-15T15:27:04.641Z,2.10
2018-07-15T15:29:32.917Z,1.70
2018-07-15T15:32:01.225Z,1.70
2018-07-15T15:34:29.684Z,1.90
2018-07-15T15:36:58.089Z,2.00
2018-07-15T15:39:26.376Z,2.03
2018-07-15T15:41:54.667Z,2.47
2018-07-15T15:44:22.973Z,1.80
2018-07-15T15:46:51.272Z,2.00
2018-07-15T15:49:19.764Z,2.07
2018-07-15T15:51:48.345Z,6.00
2018-07-15T15:54:16.637Z,4.90
2018-07-15T15:56:44.971Z,2.37
2018-07-15T15:59:13.292Z,1.87
2018-07-15T16:01:41.579Z,2.40
2018-07-15T16:04:09.898Z,2.20
2018-07-15T16:06:38.178Z,2.10
2018-07-15T16:09:07.575Z,1.90
2018-07-15T16:11:36.019Z,2.13
2018-07-15T16:14:04.754Z,2.00
2018-07-15T16:16:33.295Z,1.90
2018-07-15T16:19:01.701Z,1.97
2018-07-15T16:21:30.075Z,2.00
2018-07-15T16:23:58.126Z,2.10
2018-07-15T16:26:26.425Z,2.00
2018-07-15T16:28:54.718Z,2.17
2018-07-15T16:31:23.386Z,2.30
2018-07-15T16:33:51.814Z,3.00
2018-07-15T16:36:20.045Z,2.80
2018-07-15T16:38:48.390Z,2.20
2018-07-15T16:41:16.715Z,2.20
2018-07-15T16:43:44.992Z,2.17
2018-07-15T16:46:13.394Z,2.33
2018-07-15T16:48:41.668Z,2.10
2018-07-15T16:51:10.117Z,2.30
2018-07-15T16:53:38.401Z,2.40
2018-07-15T16:56:06.884Z,2.50
2018-07-15T16:58:35.152Z,2.50
2018-07-15T17:01:03.652Z,4.30
2018-07-15T17:03:31.970Z,4.10
2018-07-15T17:06:00.289Z,2.73
2018-07-15T17:08:28.566Z,2.70
2018-07-15T17:10:56.878Z,3.00
2018-07-15T17:13:25.214Z,3.70
2018-07-15T17:15:53.501Z,2.90
2018-07-15T17:18:21.810Z,2.97
2018-07-15T17:20:50.116Z,2.77
2018-07-15T17:23:18.822Z,2.70
2018-07-15T17:25:47.158Z,3.87
2018-07-15T17:28:15.454Z,3.37
2018-07-15T17:30:43.784Z,3.37
2018-07-15T17:33:12.163Z,2.37
2018-07-15T17:35:40.450Z,2.23
2018-07-15T17:38:08.875Z,2.30
2018-07-15T17:40:37.151Z,2.37
2018-07-15T17:43:05.482Z,2.27
2018-07-15T17:45:33.850Z,2.30
2018-07-15T17:48:02.545Z,2.10
2018-07-15T17:50:30.810Z,2.20
2018-07-15T17:52:59.114Z,2.17
2018-07-15T17:55:27.478Z,2.37
2018-07-15T17:57:55.776Z,2.20
2018-07-15T18:00:24.149Z,2.80
2018-07-15T18:02:52.478Z,2.40
2018-07-15T18:05:20.788Z,1.90
2018-07-15T18:07:49.142Z,2.00
2018-07-15T18:10:17.592Z,1.80
2018-07-15T18:12:46.060Z,2.03
2018-07-15T18:15:14.422Z,2.00
2018-07-15T18:17:42.702Z,2.00
2018-07-15T18:20:10.962Z,1.93
2018-07-15T18:22:39.268Z,2.17
2018-07-15T18:25:07.882Z,1.87
2018-07-15T18:27:36.360Z,2.20
2018-07-15T18:30:04.634Z,2.00
2018-07-15T18:32:32.948Z,1.80
2018-07-15T18:35:01.218Z,2.00
2018-07-15T18:37:29.619Z,1.80
2018-07-15T18:39:57.908Z,2.03
2018-07-15T18:42:26.258Z,1.70
2018-07-15T18:44:54.683Z,2.10
2018-07-15T18:47:23.015Z,1.87
2018-07-15T18:49:51.286Z,1.83
2018-07-15T18:52:19.772Z,1.53
2018-07-15T18:54:48.063Z,1.80
2018-07-15T18:57:16.582Z,1.97
2018-07-15T18:59:44.850Z,2.00
2018-07-15T19:02:13.128Z,2.03
2018-07-15T19:04:41.424Z,2.30
2018-07-15T19:07:09.770Z,1.90
2018-07-15T19:09:38.095Z,1.93
2018-07-15T19:12:06.440Z,1.90
2018-07-15T19:14:34.953Z,1.90
2018-07-15T19:17:04.364Z,2.03
2018-07-15T19:19:32.842Z,2.00
2018-07-15T19:22:01.293Z,1.90
2018-07-15T19:24:29.683Z,2.37
2018-07-15T19:26:58.174Z,2.00
2018-07-15T19:29:26.465Z,6.30
2018-07-15T19:31:54.901Z,4.70
2018-07-15T19:34:23.523Z,2.00
2018-07-15T19:36:52.178Z,2.00
2018-07-15T19:39:20.717Z,2.17
2018-07-15T19:41:49.012Z,2.30
2018-07-15T19:44:17.418Z,2.33
2018-07-15T19:46:45.753Z,2.00
2018-07-15T19:49:14.064Z,1.83
2018-07-15T19:51:42.363Z,2.57
2018-07-15T19:54:10.671Z,2.27
2018-07-15T19:56:39.050Z,2.10
2018-07-15T19:59:07.447Z,2.20
2018-07-15T20:01:35.742Z,2.03
2018-07-15T20:04:04.095Z,2.20
2018-07-15T20:06:32.437Z,2.40
2018-07-15T20:09:01.060Z,2.10
2018-07-15T20:11:29.426Z,2.33
2018-07-15T20:13:57.826Z,2.50
2018-07-15T20:16:26.126Z,2.40
2018-07-15T20:18:54.466Z,2.60
2018-07-15T20:21:22.786Z,2.00
2018-07-15T20:23:51.298Z,2.40
2018-07-15T20:26:19.770Z,1.93
2018-07-15T20:28:48.084Z,2.20
2018-07-15T20:31:16.806Z,2.10
2018-07-15T20:33:45.100Z,2.00
2018-07-15T20:36:13.455Z,1.97
2018-07-15T20:38:41.756Z,1.90
2018-07-15T20:41:10.205Z,2.00
2018-07-15T20:43:38.531Z,2.30
2018-07-15T20:46:07.140Z,2.00
2018-07-15T20:48:35.402Z,2.10
2018-07-15T20:51:03.992Z,2.17
2018-07-15T20:53:32.329Z,2.20
2018-07-15T20:56:00.976Z,1.90
2018-07-15T20:58:29.436Z,2.30
2018-07-15T21:00:57.997Z,1.87
2018-07-15T21:03:26.764Z,1.80
2018-07-15T21:05:55.310Z,2.67
2018-07-15T21:08:24.448Z,2.30
2018-07-15T21:10:52.865Z,1.93
2018-07-15T21:13:21.774Z,1.83
2018-07-15T21:15:50.070Z,2.00
2018-07-15T21:18:18.368Z,2.30
2018-07-15T21:20:46.643Z,2.10
2018-07-15T21:23:14.920Z,2.10
2018-07-15T21:25:43.288Z,1.97
2018-07-15T21:28:11.593Z,2.13
2018-07-15T21:30:39.869Z,1.90
2018-07-15T21:33:08.312Z,1.97
2018-07-15T21:35:36.611Z,2.00
2018-07-15T21:38:04.913Z,2.13
2018-07-15T21:40:33.220Z,2.23
2018-07-15T21:43:01.822Z,2.37
2018-07-15T21:45:30.126Z,2.00
2018-07-15T21:47:58.389Z,1.90
2018-07-15T21:50:26.681Z,2.30
2018-07-15T21:52:55.011Z,2.00
2018-07-15T21:55:23.336Z,2.00
2018-07-15T21:57:51.618Z,1.93
2018-07-15T22:00:20.155Z,1.90
2018-07-15T22:02:48.430Z,2.23
2018-07-15T22:05:16.689Z,1.60
2018-07-15T22:07:56.467Z,1.80
2018-07-15T22:10:30.770Z,1.97
2018-07-15T22:12:59.282Z,2.43
2018-07-15T22:15:27.676Z,2.60
2018-07-15T22:17:55.973Z,2.13
2018-07-15T22:20:24.313Z,2.30
2018-07-15T22:22:52.574Z,2.20
2018-07-15T22:25:20.877Z,2.40
2018-07-15T22:27:49.141Z,2.00
2018-07-15T22:30:17.509Z,2.00
2018-07-15T22:32:45.760Z,2.27
2018-07-15T22:35:14.038Z,2.40
2018-07-15T22:37:42.207Z,2.07
2018-07-15T22:40:10.540Z,2.03
2018-07-15T22:42:38.884Z,2.10
2018-07-15T22:45:07.340Z,2.17
2018-07-15T22:47:35.618Z,2.10
2018-07-15T22:50:03.879Z,2.60
2018-07-15T22:52:32.313Z,2.43
2018-07-15T22:55:00.642Z,2.40
2018-07-15T22:57:28.980Z,2.40
2018-07-15T22:59:57.259Z,2.50
2018-07-15T23:02:25.676Z,2.23
2018-07-15T23:06:02.528Z,2.37
2018-07-15T23:08:31.876Z,2.33
2018-07-15T23:11:00.180Z,2.50
2018-07-15T23:13:28.454Z,2.17
2018-07-15T23:15:56.770Z,2.40
2018-07-15T23:18:25.093Z,2.67
2018-07-15T23:20:53.377Z,2.70
2018-07-15T23:23:21.693Z,2.40
2018-07-15T23:25:49.948Z,2.47
2018-07-15T23:28:18.432Z,2.33
2018-07-15T23:30:46.825Z,2.50
2018-07-15T23:33:15.116Z,2.37
2018-07-15T23:35:43.451Z,2.30
2018-07-15T23:38:11.721Z,2.23
2018-07-15T23:40:39.966Z,2.40
2018-07-15T23:43:08.242Z,2.67
2018-07-15T23:45:37.229Z,2.70
2018-07-15T23:48:05.263Z,2.50
2018-07-15T23:50:33.517Z,2.20
2018-07-15T23:53:01.831Z,2.50
2018-07-15T23:55:30.123Z,2.33
2018-07-15T23:57:58.389Z,2.33
